Time;durP1;ratioP1;P1;durP2;ratioP2;P2;SDS_P1;SDS_P2;PMS_P1;PMS_P2;Temp;Humidity;BMP_temperature;BMP_pressure;BME280_temperature;BME280_humidity;BME280_pressure;Samples;Min_cycle;Max_cycle;Signal;HPM_P1;HPM_P2
2021/08/04 00:00:24;;;;;;;5.00;4.00;;;16.10;99.90;;;;;;5071880;28;20085;-53
2021/08/04 00:02:50;;;;;;;5.07;4.32;;;16.10;99.90;;;;;;5071898;28;20103;-54
2021/08/04 00:05:15;;;;;;;4.55;4.13;;;16.10;99.90;;;;;;5071118;28;20031;-54
2021/08/04 00:07:41;;;;;;;5.22;4.57;;;16.10;99.90;;;;;;5071646;28;20032;-54
2021/08/04 00:10:07;;;;;;;5.18;4.55;;;16.10;99.90;;;;;;5071411;28;20029;-54
2021/08/04 00:12:32;;;;;;;5.80;4.28;;;16.00;99.90;;;;;;5071128;28;20037;-54
2021/08/04 00:14:58;;;;;;;5.80;3.92;;;16.00;99.90;;;;;;5070542;28;20028;-54
2021/08/04 00:17:23;;;;;;;5.55;4.10;;;16.00;99.90;;;;;;5069903;28;20060;-54
2021/08/04 00:19:49;;;;;;;4.65;4.05;;;16.10;99.90;;;;;;5071131;28;20057;-54
2021/08/04 00:22:14;;;;;;;4.90;4.40;;;16.10;99.90;;;;;;5069699;28;20390;-54
2021/08/04 00:24:39;;;;;;;4.93;3.80;;;16.10;99.90;;;;;;5070356;28;20020;-53
2021/08/04 00:27:05;;;;;;;4.85;3.75;;;16.10;99.90;;;;;;5070976;28;20025;-54
2021/08/04 00:29:31;;;;;;;6.18;4.72;;;16.10;99.90;;;;;;5070991;28;20115;-54
2021/08/04 00:31:56;;;;;;;5.63;4.72;;;16.10;99.90;;;;;;5071264;28;20514;-54
2021/08/04 00:34:22;;;;;;;5.88;4.25;;;16.00;99.90;;;;;;5070637;28;20660;-54
2021/08/04 00:36:47;;;;;;;4.43;3.80;;;16.00;99.90;;;;;;5070949;28;20032;-54
2021/08/04 00:39:13;;;;;;;7.32;4.88;;;16.10;99.90;;;;;;5070739;28;20286;-53
2021/08/04 00:41:42;;;;;;;5.15;4.30;;;16.10;99.90;;;;;;5070808;28;20020;-54
2021/08/04 00:44:08;;;;;;;5.68;4.45;;;16.00;99.90;;;;;;5070042;28;20048;-54
2021/08/04 00:46:42;;;;;;;4.93;4.03;;;16.10;99.90;;;;;;5070685;28;20021;-53
2021/08/04 00:49:09;;;;;;;6.32;4.30;;;16.00;99.90;;;;;;5070587;28;20028;-54
2021/08/04 00:51:35;;;;;;;5.18;4.55;;;16.00;99.90;;;;;;5070481;28;20039;-54
2021/08/04 00:54:04;;;;;;;4.47;4.07;;;16.00;99.90;;;;;;5069740;28;20032;-54
2021/08/04 00:56:29;;;;;;;5.22;4.70;;;16.00;99.90;;;;;;5070209;28;20285;-54
2021/08/04 00:58:55;;;;;;;4.78;4.25;;;16.00;99.90;;;;;;5070234;28;20017;-54
2021/08/04 01:01:43;;;;;;;5.15;4.30;;;16.00;99.90;;;;;;5070462;28;20020;-54
2021/08/04 01:04:36;;;;;;;5.63;4.90;;;16.00;99.90;;;;;;5068296;28;20387;-54
2021/08/04 01:07:13;;;;;;;5.00;4.30;;;16.00;99.90;;;;;;5070114;28;20031;-53
2021/08/04 01:09:49;;;;;;;5.05;4.30;;;15.90;99.90;;;;;;5068933;28;20509;-54
2021/08/04 01:12:22;;;;;;;4.55;3.97;;;15.90;99.90;;;;;;5070006;28;20505;-54
2021/08/04 01:14:52;;;;;;;5.38;4.28;;;15.90;99.90;;;;;;5069407;28;20116;-54
2021/08/04 01:17:18;;;;;;;8.00;5.55;;;15.90;99.90;;;;;;5069899;28;20028;-54
2021/08/04 01:20:01;;;;;;;5.10;4.32;;;15.80;99.90;;;;;;5069933;28;20078;-54
2021/08/04 01:22:59;;;;;;;4.68;4.28;;;15.90;99.90;;;;;;5069865;28;20239;-54
2021/08/04 01:25:39;;;;;;;5.20;4.70;;;15.90;99.90;;;;;;5031407;28;20041;-53
2021/08/04 01:28:16;;;;;;;5.72;4.50;;;15.90;99.90;;;;;;5069825;28;20032;-53
2021/08/04 01:30:45;;;;;;;6.35;4.68;;;15.90;99.90;;;;;;5069858;28;20028;-53
2021/08/04 01:33:13;;;;;;;5.70;4.40;;;15.90;99.90;;;;;;5067780;28;20037;-53
2021/08/04 01:35:40;;;;;;;6.10;4.65;;;15.90;99.90;;;;;;5069412;28;20037;-54
2021/08/04 01:38:05;;;;;;;6.35;5.10;;;15.90;99.90;;;;;;5069526;28;20481;-53
2021/08/04 01:40:32;;;;;;;5.43;4.60;;;15.90;99.90;;;;;;5069846;28;20082;-54
2021/08/04 01:42:58;;;;;;;5.32;4.82;;;15.90;99.90;;;;;;5069514;28;20012;-54
2021/08/04 01:45:24;;;;;;;5.72;4.72;;;15.90;99.90;;;;;;5068893;28;20547;-54
2021/08/04 01:47:49;;;;;;;6.45;5.05;;;15.90;99.90;;;;;;5068341;28;20056;-54
2021/08/04 01:50:16;;;;;;;6.88;5.22;;;15.80;99.90;;;;;;5069469;28;20150;-54
2021/08/04 01:52:41;;;;;;;5.03;4.43;;;15.80;99.90;;;;;;5069296;28;20040;-54
2021/08/04 01:55:09;;;;;;;5.80;5.03;;;15.80;99.90;;;;;;5068686;28;20401;-54
2021/08/04 01:57:37;;;;;;;5.50;5.00;;;15.80;99.90;;;;;;5069429;28;20021;-54
2021/08/04 02:00:03;;;;;;;10.18;5.10;;;15.80;99.90;;;;;;5069470;28;20425;-53
2021/08/04 02:02:28;;;;;;;5.15;4.63;;;15.80;99.90;;;;;;5069143;28;20408;-54
2021/08/04 02:04:54;;;;;;;6.82;4.63;;;15.80;99.90;;;;;;5068448;28;20067;-54
2021/08/04 02:07:45;;;;;;;4.95;4.45;;;15.80;99.90;;;;;;5068814;28;20036;-54
2021/08/04 02:10:18;;;;;;;6.55;4.72;;;15.70;99.90;;;;;;5069095;28;20085;-54
2021/08/04 02:12:50;;;;;;;5.03;4.57;;;15.70;99.90;;;;;;5068891;28;20055;-53
2021/08/04 02:15:19;;;;;;;5.80;4.88;;;15.70;99.90;;;;;;5068081;28;20095;-54
2021/08/04 02:17:48;;;;;;;5.57;4.78;;;15.70;99.90;;;;;;5068813;28;20367;-53
2021/08/04 02:20:20;;;;;;;6.68;4.63;;;15.70;99.90;;;;;;5068803;28;20470;-54
2021/08/04 02:22:56;;;;;;;5.40;4.90;;;15.70;99.90;;;;;;5068849;28;20324;-54
2021/08/04 02:25:31;;;;;;;4.72;4.22;;;15.70;99.90;;;;;;5068540;28;20021;-54
2021/08/04 02:27:58;;;;;;;5.68;5.10;;;15.70;99.90;;;;;;5068832;28;20116;-55
2021/08/04 02:30:24;;;;;;;7.63;4.85;;;15.70;99.90;;;;;;5068636;28;20025;-54
2021/08/04 02:32:51;;;;;;;5.75;4.93;;;15.70;99.90;;;;;;5068745;28;20025;-53
2021/08/04 02:35:17;;;;;;;5.47;4.97;;;15.60;99.90;;;;;;5067864;28;20470;-54
2021/08/04 02:37:44;;;;;;;5.22;4.38;;;15.60;99.90;;;;;;5068688;28;20051;-54
2021/08/04 02:40:10;;;;;;;5.45;4.90;;;15.60;99.90;;;;;;5068653;28;20047;-55
2021/08/04 02:42:37;;;;;;;5.57;5.07;;;15.60;99.90;;;;;;5069075;28;20024;-53
2021/08/04 02:45:05;;;;;;;6.63;5.28;;;15.60;99.90;;;;;;5065682;28;20036;-54
2021/08/04 02:47:32;;;;;;;5.38;4.88;;;15.60;99.90;;;;;;5068346;28;20024;-54
2021/08/04 02:49:59;;;;;;;5.80;5.30;;;15.50;99.90;;;;;;5068553;28;20078;-53
2021/08/04 02:52:25;;;;;;;6.22;5.03;;;15.60;99.90;;;;;;5068556;28;20025;-54
2021/08/04 02:54:51;;;;;;;6.60;4.88;;;15.50;99.90;;;;;;5067868;28;20040;-53
2021/08/04 02:57:17;;;;;;;5.13;4.63;;;15.60;99.90;;;;;;5068922;28;20079;-53
2021/08/04 02:59:42;;;;;;;5.07;4.68;;;15.60;99.90;;;;;;5068563;28;20090;-53
2021/08/04 03:02:08;;;;;;;5.90;5.30;;;15.60;99.90;;;;;;5068770;28;20417;-53
2021/08/04 03:04:33;;;;;;;5.45;4.80;;;15.60;99.90;;;;;;5067909;28;20024;-53
2021/08/04 03:06:59;;;;;;;5.43;4.68;;;15.50;99.90;;;;;;5067028;28;20048;-53
2021/08/04 03:09:24;;;;;;;6.38;5.32;;;15.50;99.90;;;;;;5068257;28;20478;-53
2021/08/04 03:11:50;;;;;;;7.43;5.90;;;15.60;99.90;;;;;;5066737;28;20036;-52
2021/08/04 03:14:15;;;;;;;5.63;4.85;;;15.50;99.90;;;;;;5067539;28;20032;-53
2021/08/04 03:16:42;;;;;;;6.00;5.25;;;15.50;99.90;;;;;;5068161;28;20102;-52
2021/08/04 03:19:07;;;;;;;6.25;5.00;;;15.50;99.90;;;;;;5068521;28;20017;-53
2021/08/04 03:21:33;;;;;;;5.93;5.32;;;15.40;99.90;;;;;;5068307;28;20032;-53
2021/08/04 03:23:58;;;;;;;5.10;4.57;;;15.40;99.90;;;;;;5067564;28;20028;-53
2021/08/04 03:26:24;;;;;;;5.97;5.38;;;15.40;99.90;;;;;;5068141;28;20138;-53
2021/08/04 03:28:49;;;;;;;6.53;5.45;;;15.40;99.90;;;;;;5068177;28;20025;-53
2021/08/04 03:31:15;;;;;;;6.82;5.80;;;15.40;99.90;;;;;;5068096;28;20130;-52
2021/08/04 03:33:40;;;;;;;9.80;6.10;;;15.40;99.90;;;;;;5067382;28;20027;-52
2021/08/04 03:36:06;;;;;;;6.45;5.50;;;15.30;99.90;;;;;;5067901;28;20036;-53
2021/08/04 03:38:31;;;;;;;6.57;5.85;;;15.30;99.90;;;;;;5068001;28;20025;-53
2021/08/04 03:40:57;;;;;;;6.20;5.57;;;15.30;99.90;;;;;;5067949;28;20031;-53
2021/08/04 03:43:23;;;;;;;6.20;5.70;;;15.30;99.90;;;;;;5067481;28;20588;-53
2021/08/04 03:45:49;;;;;;;6.10;5.35;;;15.30;99.90;;;;;;5067953;28;20037;-53
2021/08/04 03:48:14;;;;;;;7.07;6.03;;;15.30;99.90;;;;;;5067879;28;20040;-53
2021/08/04 03:50:40;;;;;;;6.18;5.65;;;15.30;99.90;;;;;;5067892;28;20574;-53
2021/08/04 03:53:05;;;;;;;9.45;6.90;;;15.20;99.90;;;;;;5068216;28;20413;-53
2021/08/04 03:55:31;;;;;;;8.75;5.63;;;15.20;99.90;;;;;;5067187;28;20110;-53
2021/08/04 03:57:56;;;;;;;6.32;5.57;;;15.20;99.90;;;;;;5070514;28;20029;-53
2021/08/04 04:00:22;;;;;;;10.50;7.10;;;15.20;99.90;;;;;;5071776;28;20024;-52
2021/08/04 04:02:47;;;;;;;6.38;5.70;;;15.10;99.90;;;;;;5071804;28;20074;-53
2021/08/04 04:05:13;;;;;;;6.65;5.93;;;15.00;99.90;;;;;;5071038;28;20029;-53
2021/08/04 04:07:39;;;;;;;6.90;6.25;;;15.10;99.90;;;;;;5071646;28;20036;-52
2021/08/04 04:10:05;;;;;;;7.68;5.88;;;15.10;99.90;;;;;;5071462;28;20551;-52
2021/08/04 04:12:30;;;;;;;6.28;5.68;;;15.00;99.90;;;;;;5071238;28;20393;-53
2021/08/04 04:14:56;;;;;;;5.65;5.15;;;15.00;99.90;;;;;;5070507;28;20040;-52
2021/08/04 04:17:22;;;;;;;6.63;5.88;;;14.90;99.90;;;;;;5071066;28;20099;-53
2021/08/04 04:19:48;;;;;;;6.70;5.82;;;14.90;99.90;;;;;;5071177;28;20032;-52
2021/08/04 04:22:13;;;;;;;7.30;5.55;;;14.90;99.90;;;;;;5070872;28;20338;-52
2021/08/04 04:24:39;;;;;;;9.15;6.95;;;14.90;99.90;;;;;;5070316;28;20028;-52
2021/08/04 04:27:05;;;;;;;6.85;6.25;;;14.90;99.90;;;;;;5070906;28;20047;-53
2021/08/04 04:29:30;;;;;;;6.90;6.20;;;15.00;99.90;;;;;;5071060;28;20039;-52
2021/08/04 04:31:56;;;;;;;6.47;5.88;;;15.10;99.90;;;;;;5070826;28;20494;-53
2021/08/04 04:34:21;;;;;;;8.18;6.22;;;15.10;99.90;;;;;;5069992;28;20039;-53
2021/08/04 04:36:46;;;;;;;6.47;5.88;;;15.20;99.90;;;;;;5070713;28;20164;-53
2021/08/04 04:39:12;;;;;;;7.40;5.72;;;15.20;99.90;;;;;;5070860;28;20464;-54
2021/08/04 04:41:37;;;;;;;7.50;6.20;;;15.30;99.90;;;;;;5070656;28;20107;-55
2021/08/04 04:44:03;;;;;;;10.27;6.20;;;15.30;99.90;;;;;;5070097;28;20017;-53
2021/08/04 04:46:29;;;;;;;6.20;5.60;;;15.40;99.90;;;;;;5070568;28;20025;-53
2021/08/04 04:48:54;;;;;;;6.10;5.40;;;15.40;99.90;;;;;;5070732;28;20529;-53
2021/08/04 04:51:20;;;;;;;6.03;5.35;;;15.50;99.90;;;;;;5070532;28;20115;-53
2021/08/04 04:53:45;;;;;;;5.70;5.10;;;15.50;99.90;;;;;;5070032;28;20029;-53
2021/08/04 04:56:11;;;;;;;6.85;5.50;;;15.50;99.90;;;;;;5070389;28;20032;-53
2021/08/04 04:58:36;;;;;;;7.32;5.50;;;15.60;99.90;;;;;;5070680;28;20020;-53
2021/08/04 05:01:02;;;;;;;6.28;5.63;;;15.70;99.90;;;;;;5070678;28;20147;-52
2021/08/04 05:03:28;;;;;;;5.90;5.35;;;15.70;99.90;;;;;;5069894;28;20386;-53
2021/08/04 05:05:53;;;;;;;9.48;5.95;;;15.80;99.90;;;;;;5071019;28;20028;-53
2021/08/04 05:08:19;;;;;;;12.93;5.93;;;15.80;99.90;;;;;;5069754;28;20480;-53
2021/08/04 05:10:45;;;;;;;6.80;5.68;;;15.90;99.90;;;;;;5070259;28;20118;-53
2021/08/04 05:13:10;;;;;;;6.68;5.30;;;15.90;99.90;;;;;;5068605;28;20040;-54
2021/08/04 05:15:35;;;;;;;8.43;5.55;;;15.90;99.90;;;;;;5068333;28;20567;-53
2021/08/04 05:18:01;;;;;;;6.45;5.45;;;16.00;99.90;;;;;;5070009;28;20331;-53
2021/08/04 05:20:27;;;;;;;7.13;5.57;;;16.00;99.90;;;;;;5070458;28;20020;-53
2021/08/04 05:22:52;;;;;;;7.18;5.55;;;16.10;99.90;;;;;;5070366;28;20674;-53
2021/08/04 05:25:18;;;;;;;6.63;5.30;;;16.10;99.90;;;;;;5069113;28;20024;-53
2021/08/04 05:27:43;;;;;;;7.03;5.28;;;16.20;99.90;;;;;;5069828;28;20024;-53
2021/08/04 05:30:12;;;;;;;5.32;4.32;;;16.20;99.90;;;;;;5069758;28;20116;-53
2021/08/04 05:32:37;;;;;;;7.60;4.85;;;16.30;99.90;;;;;;5069631;28;20039;-53
2021/08/04 05:35:03;;;;;;;5.63;5.07;;;16.30;99.90;;;;;;5068905;28;20032;-53
2021/08/04 05:37:29;;;;;;;5.20;4.32;;;16.40;99.90;;;;;;5068249;28;20490;-53
2021/08/04 05:39:54;;;;;;;6.68;4.60;;;16.50;99.90;;;;;;5069489;28;20032;-53
2021/08/04 05:42:20;;;;;;;5.20;4.70;;;16.50;99.90;;;;;;5069664;28;20025;-53
2021/08/04 05:44:45;;;;;;;6.03;5.25;;;16.60;99.90;;;;;;5068916;28;20218;-53
2021/08/04 05:47:12;;;;;;;8.02;5.15;;;16.70;99.90;;;;;;5069348;28;20107;-53
2021/08/04 05:49:37;;;;;;;7.00;5.00;;;16.70;99.90;;;;;;5068239;28;20017;-53
2021/08/04 05:52:03;;;;;;;6.72;4.40;;;16.80;99.90;;;;;;5068086;28;20020;-53
2021/08/04 05:54:29;;;;;;;5.93;4.70;;;16.90;99.90;;;;;;5068522;28;20021;-53
2021/08/04 05:56:54;;;;;;;5.07;4.53;;;17.00;99.90;;;;;;5069296;28;20109;-53
2021/08/04 05:59:20;;;;;;;6.45;4.38;;;17.10;99.90;;;;;;5069402;28;20048;-54
2021/08/04 06:01:45;;;;;;;5.55;4.50;;;17.20;99.90;;;;;;5069290;28;20415;-53
2021/08/04 06:04:11;;;;;;;6.47;4.28;;;17.30;99.90;;;;;;5068825;28;20028;-53
2021/08/04 06:06:36;;;;;;;7.47;5.13;;;17.40;99.90;;;;;;5069208;28;20041;-53
2021/08/04 06:09:02;;;;;;;5.50;5.00;;;17.50;99.90;;;;;;5069004;28;20108;-53
2021/08/04 06:11:27;;;;;;;6.97;5.15;;;17.60;99.90;;;;;;5068945;28;20470;-53
2021/08/04 06:13:53;;;;;;;6.05;4.90;;;17.70;99.90;;;;;;5067043;28;20032;-53
2021/08/04 06:16:18;;;;;;;5.45;4.95;;;17.90;99.90;;;;;;5067716;28;20029;-54
2021/08/04 06:18:44;;;;;;;5.32;4.82;;;17.90;99.90;;;;;;5069123;28;20020;-53
2021/08/04 06:21:09;;;;;;;6.78;5.32;;;18.00;99.90;;;;;;5068916;28;20106;-53
2021/08/04 06:23:35;;;;;;;7.28;4.90;;;18.10;99.90;;;;;;5067116;28;20420;-54
2021/08/04 06:26:01;;;;;;;6.93;5.40;;;18.20;99.90;;;;;;5069125;28;20035;-53
2021/08/04 06:28:27;;;;;;;8.48;5.20;;;18.40;99.90;;;;;;5069037;28;20021;-54
2021/08/04 06:30:52;;;;;;;7.82;5.85;;;18.40;99.90;;;;;;5069125;28;20182;-53
2021/08/04 06:33:18;;;;;;;6.45;4.78;;;18.50;99.90;;;;;;5068460;28;20103;-53
2021/08/04 06:35:43;;;;;;;7.72;4.90;;;18.60;99.90;;;;;;5068660;28;20118;-54
2021/08/04 06:38:09;;;;;;;5.55;4.78;;;18.70;99.90;;;;;;5069171;28;20421;-53
2021/08/04 06:40:34;;;;;;;5.80;4.50;;;18.80;99.90;;;;;;5067677;28;20017;-53
2021/08/04 06:43:00;;;;;;;5.70;5.10;;;18.90;99.90;;;;;;5068742;28;20050;-53
2021/08/04 06:45:25;;;;;;;5.40;4.90;;;19.00;99.90;;;;;;5068017;28;20391;-53
2021/08/04 06:47:51;;;;;;;7.38;4.90;;;19.10;99.90;;;;;;5068611;28;20028;-53
2021/08/04 06:50:16;;;;;;;12.40;5.68;;;19.20;99.90;;;;;;5068592;28;20047;-53
2021/08/04 06:52:42;;;;;;;4.70;4.05;;;19.30;99.90;;;;;;5068313;28;20085;-53
2021/08/04 06:55:08;;;;;;;5.13;4.10;;;19.40;99.90;;;;;;5067801;28;20079;-54
2021/08/04 06:57:33;;;;;;;4.93;4.38;;;19.60;99.90;;;;;;5068655;28;20047;-53
2021/08/04 06:59:59;;;;;;;5.32;4.82;;;19.70;99.90;;;;;;5068506;28;20078;-53
2021/08/04 07:02:24;;;;;;;4.97;4.28;;;19.90;99.90;;;;;;5067049;28;20573;-54
2021/08/04 07:04:50;;;;;;;4.57;4.13;;;20.00;99.90;;;;;;5067673;28;20027;-54
2021/08/04 07:07:16;;;;;;;5.95;4.88;;;20.10;99.90;;;;;;5068233;28;20409;-53
2021/08/04 07:09:42;;;;;;;6.53;4.07;;;20.20;99.90;;;;;;5068235;28;20032;-54
2021/08/04 07:12:08;;;;;;;4.90;4.03;;;20.30;99.90;;;;;;5068484;28;20044;-53
2021/08/04 07:14:34;;;;;;;4.65;4.22;;;20.40;99.90;;;;;;5067614;28;20390;-54
2021/08/04 07:17:01;;;;;;;5.47;4.80;;;20.50;99.90;;;;;;5068170;28;20394;-53
2021/08/04 07:19:26;;;;;;;4.82;4.07;;;20.50;99.90;;;;;;5068143;28;20035;-53
2021/08/04 07:21:52;;;;;;;4.45;4.05;;;20.50;99.90;;;;;;5067971;28;20021;-54
2021/08/04 07:24:18;;;;;;;4.60;4.10;;;20.50;99.90;;;;;;5067546;28;20051;-53
2021/08/04 07:26:44;;;;;;;4.60;4.18;;;20.50;99.90;;;;;;5066740;28;20151;-54
2021/08/04 07:29:11;;;;;;;4.70;4.30;;;20.50;99.90;;;;;;5068092;28;20025;-53
2021/08/04 07:31:37;;;;;;;6.22;4.70;;;20.60;99.90;;;;;;5068566;28;20108;-53
2021/08/04 07:34:03;;;;;;;5.10;4.60;;;20.60;99.90;;;;;;5071332;28;20037;-53
2021/08/04 07:36:29;;;;;;;4.38;3.97;;;20.60;99.90;;;;;;5070441;28;20083;-54
2021/08/04 07:38:54;;;;;;;4.63;4.22;;;20.70;99.90;;;;;;5071884;28;20020;-53
2021/08/04 07:41:20;;;;;;;4.75;4.18;;;20.80;99.90;;;;;;5071855;28;20063;-54
2021/08/04 07:43:45;;;;;;;4.30;3.90;;;20.80;99.90;;;;;;5071098;28;20113;-53
2021/08/04 07:46:12;;;;;;;6.82;4.20;;;20.90;99.90;;;;;;5071792;28;20294;-54
2021/08/04 07:48:37;;;;;;;4.68;3.97;;;21.00;99.90;;;;;;5071689;28;20075;-53
2021/08/04 07:51:04;;;;;;;5.78;4.75;;;21.10;99.90;;;;;;5071443;28;20059;-53
2021/08/04 07:53:31;;;;;;;5.72;4.32;;;21.10;99.90;;;;;;5071074;28;20486;-54
2021/08/04 07:55:57;;;;;;;4.80;4.30;;;21.30;99.90;;;;;;5071532;28;20036;-54
2021/08/04 07:58:22;;;;;;;5.05;4.32;;;21.50;99.90;;;;;;5071639;28;20377;-53
2021/08/04 08:00:48;;;;;;;4.57;3.38;;;21.80;99.90;;;;;;5071440;28;20016;-54
2021/08/04 08:03:13;;;;;;;6.43;4.18;;;21.90;99.90;;;;;;5071009;28;20025;-54
2021/08/04 08:05:39;;;;;;;6.13;3.90;;;22.10;99.90;;;;;;5070996;28;20565;-54
2021/08/04 08:08:05;;;;;;;6.68;4.07;;;22.30;99.90;;;;;;5071283;28;20029;-53
2021/08/04 08:10:32;;;;;;;5.13;3.70;;;22.40;99.60;;;;;;5071319;28;20032;-54
2021/08/04 08:12:59;;;;;;;3.75;3.45;;;22.60;98.50;;;;;;5069727;28;20115;-54
2021/08/04 08:15:25;;;;;;;5.68;3.30;;;22.70;98.30;;;;;;5070455;28;20025;-54
2021/08/04 08:17:50;;;;;;;4.93;3.40;;;22.70;98.40;;;;;;5071464;28;20040;-54
2021/08/04 08:20:16;;;;;;;4.55;3.65;;;22.80;97.40;;;;;;5070970;28;20368;-54
2021/08/04 08:22:42;;;;;;;4.47;3.20;;;22.50;96.80;;;;;;5071006;28;20166;-53
2021/08/04 08:25:12;;;;;;;4.85;3.80;;;22.50;97.10;;;;;;5070416;28;20033;-54
2021/08/04 08:27:37;;;;;;;5.78;3.50;;;22.40;96.70;;;;;;5071103;28;20085;-53
2021/08/04 08:30:04;;;;;;;6.75;3.67;;;22.70;96.90;;;;;;5070953;28;20028;-54
2021/08/04 08:32:29;;;;;;;4.60;3.50;;;22.80;96.60;;;;;;5070962;28;20028;-54
2021/08/04 08:34:55;;;;;;;3.90;3.40;;;23.10;96.20;;;;;;5070045;28;20039;-54
2021/08/04 08:37:21;;;;;;;3.50;3.20;;;23.00;95.30;;;;;;5070804;28;20427;-54
2021/08/04 08:39:46;;;;;;;3.25;2.95;;;23.40;95.30;;;;;;5070706;28;20386;-54
2021/08/04 08:42:12;;;;;;;4.10;2.97;;;24.10;95.50;;;;;;5070663;28;20462;-54
2021/08/04 08:44:37;;;;;;;4.07;2.45;;;24.70;93.70;;;;;;5068543;28;20035;-54
2021/08/04 08:47:07;;;;;;;3.30;2.10;;;25.10;91.40;;;;;;5070982;28;20028;-54
2021/08/04 08:49:33;;;;;;;5.47;3.17;;;25.40;90.80;;;;;;5070549;28;20634;-54
2021/08/04 08:51:59;;;;;;;3.92;2.75;;;25.60;91.00;;;;;;5070609;28;20068;-54
2021/08/04 08:54:27;;;;;;;3.25;2.60;;;25.50;91.00;;;;;;5069835;28;20421;-54
2021/08/04 08:56:53;;;;;;;3.28;2.67;;;25.40;89.20;;;;;;5070408;28;20028;-55
2021/08/04 08:59:18;;;;;;;3.55;3.17;;;25.10;89.30;;;;;;5070545;28;20394;-54
2021/08/04 09:01:45;;;;;;;2.90;2.50;;;25.00;87.80;;;;;;5070437;28;20021;-54
2021/08/04 09:04:12;;;;;;;3.35;3.05;;;24.80;90.20;;;;;;5069638;28;20028;-54
2021/08/04 09:06:52;;;;;;;2.70;2.50;;;24.40;90.40;;;;;;5070262;28;20111;-54
2021/08/04 09:09:19;;;;;;;;;;;24.40;90.80;;;;;;5070766;28;20033;-54
2021/08/04 09:11:47;;;;;;;5.25;2.80;;;24.60;90.10;;;;;;5068763;28;20163;-54
2021/08/04 09:14:12;;;;;;;2.55;2.35;;;24.80;88.30;;;;;;5069421;28;20074;-54
2021/08/04 09:16:39;;;;;;;3.92;3.00;;;24.90;88.70;;;;;;5069663;28;20061;-54
2021/08/04 09:19:21;;;;;;;2.53;2.33;;;25.50;87.80;;;;;;5070030;28;20035;-54
2021/08/04 09:22:07;;;;;;;3.45;2.60;;;25.70;86.30;;;;;;5068650;28;20051;-55
2021/08/04 09:25:10;;;;;;;4.18;2.92;;;26.00;83.40;;;;;;5069166;28;20116;-55
2021/08/04 09:27:41;;;;;;;2.50;2.30;;;26.20;84.70;;;;;;5069861;28;20510;-54
2021/08/04 09:30:08;;;;;;;5.70;2.65;;;27.50;80.50;;;;;;5069976;28;20111;-55
2021/08/04 09:32:34;;;;;;;2.53;2.13;;;27.60;77.70;;;;;;5069533;28;20176;-55
2021/08/04 09:35:09;;;;;;;2.30;2.08;;;28.20;77.50;;;;;;5068958;28;20035;-55
2021/08/04 09:37:34;;;;;;;2.67;2.10;;;29.20;73.40;;;;;;5069697;28;20025;-54
2021/08/04 09:40:02;;;;;;;2.30;2.10;;;29.30;73.80;;;;;;5069692;28;20155;-54
2021/08/04 09:43:00;;;;;;;2.20;2.00;;;29.10;70.60;;;;;;5069571;28;20087;-54
2021/08/04 09:45:49;;;;;;;4.95;2.00;;;29.30;68.20;;;;;;5045528;28;20052;-54
2021/08/04 09:48:16;;;;;;;2.97;2.22;;;28.70;67.10;;;;;;5069508;28;20021;-54
2021/08/04 09:50:56;;;;;;;3.00;2.00;;;28.70;68.20;;;;;;5069441;28;20036;-55
2021/08/04 09:53:32;;;;;;;2.75;1.88;;;28.70;68.60;;;;;;5068799;28;20428;-54
2021/08/04 09:56:12;;;;;;;4.30;2.03;;;28.30;67.90;;;;;;5068589;28;20043;-54
2021/08/04 09:58:44;;;;;;;2.10;1.90;;;28.00;69.00;;;;;;5067997;28;20559;-55
2021/08/04 10:01:13;;;;;;;3.75;2.00;;;28.30;67.30;;;;;;5069329;28;20016;-54
2021/08/04 10:03:56;;;;;;;3.83;2.13;;;28.10;65.50;;;;;;5068592;28;20394;-54
2021/08/04 10:06:22;;;;;;;1.75;1.65;;;28.20;66.50;;;;;;5069357;28;20037;-54
2021/08/04 10:08:47;;;;;;;3.30;1.65;;;29.00;65.50;;;;;;5068898;28;20436;-54
2021/08/04 10:11:13;;;;;;;2.15;1.88;;;29.80;65.50;;;;;;5068953;28;20029;-55
2021/08/04 10:13:39;;;;;;;2.75;1.80;;;30.00;61.10;;;;;;5068213;28;20173;-55
2021/08/04 10:16:05;;;;;;;2.40;1.80;;;30.00;60.80;;;;;;5068791;28;20135;-54
2021/08/04 10:18:33;;;;;;;2.38;1.75;;;30.00;61.90;;;;;;5068934;28;20032;-55
2021/08/04 10:21:07;;;;;;;1.58;1.48;;;29.40;60.00;;;;;;5068726;28;20025;-55
2021/08/04 10:23:33;;;;;;;4.32;2.10;;;29.30;59.90;;;;;;5068296;28;20024;-54
2021/08/04 10:26:00;;;;;;;2.05;1.77;;;29.00;63.30;;;;;;5069058;28;20033;-54
2021/08/04 10:28:27;;;;;;;4.43;2.20;;;29.00;63.50;;;;;;5069083;28;20051;-54
2021/08/04 10:30:54;;;;;;;2.65;2.10;;;29.60;62.80;;;;;;5068510;28;20028;-54
2021/08/04 10:33:19;;;;;;;2.88;1.80;;;29.50;62.40;;;;;;5068041;28;20024;-55
2021/08/04 10:35:52;;;;;;;1.90;1.80;;;29.30;60.10;;;;;;5068535;28;20051;-54
2021/08/04 10:38:20;;;;;;;4.70;1.83;;;28.80;60.20;;;;;;5068708;28;20084;-54
2021/08/04 10:41:06;;;;;;;3.05;1.83;;;28.60;62.00;;;;;;5068392;28;20112;-54
2021/08/04 10:43:39;;;;;;;1.73;1.35;;;28.30;63.20;;;;;;5067720;28;20033;-55
2021/08/04 10:46:30;;;;;;;2.92;1.70;;;28.30;62.00;;;;;;5068408;28;20024;-54
2021/08/04 10:49:04;;;;;;;3.75;1.70;;;28.30;61.50;;;;;;5068427;28;20438;-54
2021/08/04 10:51:32;;;;;;;1.70;1.60;;;28.10;63.40;;;;;;5068511;28;20110;-54
2021/08/04 10:54:00;;;;;;;1.80;1.70;;;27.60;63.50;;;;;;5066568;28;20025;-54
2021/08/04 10:56:46;;;;;;;2.30;2.10;;;27.20;63.30;;;;;;5068777;28;20028;-53
2021/08/04 10:59:11;;;;;;;1.92;1.83;;;27.00;63.70;;;;;;5068342;28;20303;-53
2021/08/04 11:01:53;;;;;;;3.08;2.00;;;26.90;64.60;;;;;;5068413;28;20378;-53
2021/08/04 11:04:27;;;;;;;2.20;2.00;;;26.40;64.60;;;;;;5067895;28;20027;-53
2021/08/04 11:07:08;;;;;;;3.88;1.83;;;26.00;66.50;;;;;;5069399;28;20099;-53
2021/08/04 11:09:58;;;;;;;2.13;1.88;;;25.70;67.40;;;;;;5072534;28;20085;-53
2021/08/04 11:12:27;;;;;;;1.80;1.70;;;25.50;68.20;;;;;;5071154;28;20494;-53
2021/08/04 11:14:54;;;;;;;2.10;1.90;;;25.20;68.40;;;;;;5070234;28;20039;-53
2021/08/04 11:17:25;;;;;;;3.33;2.03;;;25.00;67.90;;;;;;5070879;28;20256;-53
2021/08/04 11:19:57;;;;;;;2.67;2.45;;;24.90;68.80;;;;;;5072356;28;20020;-54
2021/08/04 11:22:24;;;;;;;2.58;2.00;;;24.50;70.60;;;;;;5070850;28;20390;-54
2021/08/04 11:24:54;;;;;;;3.20;1.80;;;24.40;69.50;;;;;;5071512;28;20020;-55
2021/08/04 11:27:25;;;;;;;3.15;1.98;;;24.30;72.30;;;;;;5072548;28;20021;-55
2021/08/04 11:29:52;;;;;;;2.80;2.33;;;24.20;72.60;;;;;;5072078;28;20020;-55
2021/08/04 11:32:23;;;;;;;3.30;2.03;;;24.00;71.90;;;;;;5071972;28;20025;-55
2021/08/04 11:34:49;;;;;;;2.40;2.20;;;24.00;73.80;;;;;;5071305;28;20017;-55
2021/08/04 11:37:15;;;;;;;2.38;2.10;;;23.80;72.20;;;;;;5071807;28;20307;-54
2021/08/04 11:40:00;;;;;;;2.50;2.28;;;23.70;73.10;;;;;;5071899;28;20032;-55
2021/08/04 11:42:27;;;;;;;3.35;2.45;;;23.70;72.50;;;;;;5072312;28;20459;-54
2021/08/04 11:44:53;;;;;;;2.10;1.95;;;23.70;73.20;;;;;;5071109;28;20029;-54
2021/08/04 11:47:20;;;;;;;7.10;2.63;;;23.70;73.60;;;;;;5071770;28;20047;-54
2021/08/04 11:49:47;;;;;;;2.72;2.30;;;23.60;74.50;;;;;;5071735;28;20021;-54
2021/08/04 11:52:14;;;;;;;2.25;2.05;;;23.50;75.80;;;;;;5071715;28;20020;-54
2021/08/04 11:54:49;;;;;;;2.70;2.50;;;23.50;74.80;;;;;;5071059;28;20074;-54
2021/08/04 11:57:29;;;;;;;2.95;2.55;;;23.50;75.30;;;;;;5071654;28;20089;-54
2021/08/04 12:00:00;;;;;;;3.47;2.70;;;23.50;76.40;;;;;;5071809;28;20019;-54
2021/08/04 12:02:30;;;;;;;3.65;2.78;;;23.50;77.70;;;;;;5070368;28;20501;-54
2021/08/04 12:04:56;;;;;;;;;;;23.50;76.20;;;;;;5071521;28;20247;-54
2021/08/04 12:07:27;;;;;;;6.57;3.00;;;23.60;75.30;;;;;;5071403;28;19908;-54
2021/08/04 12:09:54;;;;;;;2.85;2.55;;;23.60;76.20;;;;;;5071617;28;20066;-55
2021/08/04 12:12:22;;;;;;;2.50;2.30;;;23.80;76.90;;;;;;5071478;28;20059;-54
2021/08/04 12:14:50;;;;;;;2.72;2.50;;;23.90;76.10;;;;;;5070970;28;20425;-54
2021/08/04 12:17:31;;;;;;;2.55;2.30;;;23.90;76.00;;;;;;5069662;28;20033;-55
2021/08/04 12:19:57;;;;;;;2.95;2.50;;;24.00;75.00;;;;;;5071742;28;20012;-54
2021/08/04 12:22:28;;;;;;;3.75;2.50;;;24.00;74.60;;;;;;5072178;28;20382;-55
2021/08/04 12:24:56;;;;;;;4.95;2.33;;;24.10;75.50;;;;;;5071100;28;20543;-54
2021/08/04 12:27:31;;;;;;;3.65;2.30;;;24.20;76.70;;;;;;5071381;28;20036;-54
2021/08/04 12:30:36;;;;;;;3.83;3.17;;;24.30;75.80;;;;;;5071060;28;20020;-54
2021/08/04 12:33:06;;;;;;;3.65;3.00;;;24.50;75.40;;;;;;5064997;28;20040;-54
2021/08/04 12:36:04;;;;;;;3.60;2.25;;;24.70;73.60;;;;;;5070354;28;20036;-54
2021/08/04 12:38:32;;;;;;;3.90;1.92;;;25.40;74.40;;;;;;5067840;28;20029;-55
2021/08/04 12:40:58;;;;;;;3.97;2.08;;;25.60;72.30;;;;;;5071181;28;20048;-54
2021/08/04 12:43:29;;;;;;;2.55;2.33;;;25.70;72.40;;;;;;5070230;28;20123;-54
2021/08/04 12:45:57;;;;;;;3.17;2.13;;;26.00;70.80;;;;;;5069583;28;20055;-55
2021/08/04 12:48:34;;;;;;;2.90;2.15;;;26.10;70.80;;;;;;5070877;28;20120;-55
2021/08/04 12:51:00;;;;;;;2.47;2.20;;;26.10;70.30;;;;;;5070758;28;20028;-55
2021/08/04 12:53:34;;;;;;;3.95;2.30;;;25.90;70.00;;;;;;5070315;28;20029;-55